Time;durP1;ratioP1;P1;durP2;ratioP2;P2;SDS_P1;SDS_P2;PMS_P1;PMS_P2;Temp;Humidity;BMP_temperature;BMP_pressure;BME280_temperature;BME280_humidity;BME280_pressure;Samples;Min_cycle;Max_cycle;Signal;HPM_P1;HPM_P2
2020/07/22 00:00:38;;;;;;;4.8;1.9;;;;;;;19.59;63.68066;962.9439;;;;
2020/07/22 00:03:11;;;;;;;3.7;1.8;;;;;;;19.37;64.41113;962.9274;;;;
2020/07/22 00:05:38;;;;;;;6.6;2.2;;;;;;;19.47;64.60352;962.8983;;;;
2020/07/22 00:08:04;;;;;;;6.4;2.1;;;;;;;19.06;65.0127;962.9459;;;;
2020/07/22 00:10:29;;;;;;;9.3;2.3;;;;;;;19.29;65.01074;962.8899;;;;
2020/07/22 00:12:54;;;;;;;4.4;2;;;;;;;19.42;63.94922;962.8847;;;;
2020/07/22 00:15:37;;;;;;;4.1;1.8;;;;;;;19.32;64.74414;962.8318;;;;
2020/07/22 00:18:02;;;;;;;2.9;1.9;;;;;;;19.14;65.65723;962.8535;;;;
2020/07/22 00:20:27;;;;;;;4;2;;;;;;;19.27;65.2207;962.8308;;;;
2020/07/22 00:22:52;;;;;;;6.8;2.3;;;;;;;18.88;66.3457;962.8477;;;;
2020/07/22 00:25:17;;;;;;;7.7;2;;;;;;;19.07;66.40918;962.8211;;;;
2020/07/22 00:27:42;;;;;;;4;1.7;;;;;;;19.22;66.4668;962.7949;;;;
2020/07/22 00:30:07;;;;;;;5.8;2;;;;;;;19.43;64.64355;962.7506;;;;
2020/07/22 00:32:32;;;;;;;5.6;2;;;;;;;19.24;65.64941;962.7615;;;;
2020/07/22 00:34:57;;;;;;;4.7;2.2;;;;;;;19.4;64.86328;962.7955;;;;
2020/07/22 00:37:22;;;;;;;6.5;2;;;;;;;18.53;67.26563;962.8259;;;;
2020/07/22 00:39:51;;;;;;;5.7;2.4;;;;;;;18.38;67.54883;962.8995;;;;
2020/07/22 00:42:16;;;;;;;6.8;2.1;;;;;;;18.63;67.85645;962.8745;;;;
2020/07/22 00:44:42;;;;;;;5.7;1.9;;;;;;;18.45;68.0752;962.8162;;;;
2020/07/22 00:47:07;;;;;;;7;2;;;;;;;18.29;68.14355;962.8826;;;;
2020/07/22 00:49:32;;;;;;;3.3;1.8;;;;;;;18.25;69.00488;962.9034;;;;
2020/07/22 00:51:57;;;;;;;4.7;1.9;;;;;;;18.29;69.24414;962.9247;;;;
2020/07/22 00:54:22;;;;;;;6;1.9;;;;;;;18.47;68.78125;962.8848;;;;
2020/07/22 00:56:47;;;;;;;7.9;2.3;;;;;;;18.28;69.13867;962.8464;;;;
2020/07/22 00:59:12;;;;;;;3.8;1.8;;;;;;;18.32;68.70996;962.8536;;;;
2020/07/22 01:01:37;;;;;;;4.8;1.7;;;;;;;18.48;68.38379;962.8358;;;;
2020/07/22 01:04:02;;;;;;;5.5;2.1;;;;;;;17.95;68.81543;962.9451;;;;
2020/07/22 01:06:27;;;;;;;5.9;1.9;;;;;;;17.85;68.84863;962.8723;;;;
2020/07/22 01:08:53;;;;;;;5.9;1.7;;;;;;;17.79;69.03906;962.94;;;;
2020/07/22 01:11:18;;;;;;;3.9;1.9;;;;;;;17.91;67.70996;962.8984;;;;
2020/07/22 01:13:43;;;;;;;6.3;2.1;;;;;;;17.86;69.02539;962.9409;;;;
2020/07/22 01:16:08;;;;;;;4.5;1.7;;;;;;;17.97;68.93555;962.9205;;;;
2020/07/22 01:18:33;;;;;;;4.1;1.7;;;;;;;18.14;67.37109;962.9007;;;;
2020/07/22 01:20:58;;;;;;;4.2;1.6;;;;;;;18.11;68.72656;962.8605;;;;
2020/07/22 01:23:23;;;;;;;4.6;1.8;;;;;;;18.17;67.63281;962.8256;;;;
2020/07/22 01:25:48;;;;;;;4.4;1.9;;;;;;;17.9;68.98438;962.9152;;;;
2020/07/22 01:28:14;;;;;;;5;1.8;;;;;;;17.98;68.21289;962.912;;;;
2020/07/22 01:32:27;;;;;;;6.1;1.4;;;;;;;18.41;65.80664;962.824;;;;
2020/07/22 01:34:52;;;;;;;5.3;1.9;;;;;;;18.26;66.67578;962.8233;;;;
2020/07/22 01:37:17;;;;;;;3.9;1.5;;;;;;;18.29;66.01172;962.7919;;;;
2020/07/22 01:39:42;;;;;;;6.8;1.8;;;;;;;17.95;66.32324;962.8317;;;;
2020/07/22 01:42:12;;;;;;;5.3;1.3;;;;;;;18.02;66.54492;962.813;;;;
2020/07/22 01:44:37;;;;;;;3.4;1.7;;;;;;;17.97;67.14551;962.7728;;;;
2020/07/22 01:47:02;;;;;;;3.8;1.5;;;;;;;18.03;67.02637;962.7833;;;;
2020/07/22 01:49:27;;;;;;;7.4;1.9;;;;;;;17.86;66.69629;962.7734;;;;
2020/07/22 01:51:52;;;;;;;4.6;1.7;;;;;;;17.98;67.27734;962.8084;;;;
2020/07/22 01:54:17;;;;;;;4.6;1.7;;;;;;;18.18;66.03125;962.7709;;;;
2020/07/22 01:56:42;;;;;;;4.8;1.7;;;;;;;18.17;65.74707;962.7513;;;;
2020/07/22 01:59:07;;;;;;;4.3;1.7;;;;;;;18.3;64.57227;962.7528;;;;
2020/07/22 02:01:32;;;;;;;6.2;1.9;;;;;;;17.86;66.08789;962.8633;;;;
2020/07/22 02:03:57;;;;;;;6.8;1.6;;;;;;;17.61;67.49902;962.8333;;;;
2020/07/22 02:06:22;;;;;;;3.9;1.6;;;;;;;17.42;68.08984;962.7977;;;;
2020/07/22 02:08:47;;;;;;;8.6;1.8;;;;;;;17.3;67.95508;962.7798;;;;
2020/07/22 02:11:13;;;;;;;5.4;1.9;;;;;;;17.52;67.90723;962.7981;;;;
2020/07/22 02:13:38;;;;;;;4.1;1.5;;;;;;;17.45;67.81641;962.8016;;;;
2020/07/22 02:16:03;;;;;;;3.5;1.7;;;;;;;17.53;67.66309;962.8206;;;;
2020/07/22 02:18:30;;;;;;;5.2;1.9;;;;;;;17.38;67.74512;962.7745;;;;
2020/07/22 02:20:55;;;;;;;4.5;1.6;;;;;;;17.46;67.55859;962.7851;;;;
2020/07/22 02:23:20;;;;;;;4.8;1.5;;;;;;;17.76;66.70313;962.7825;;;;
2020/07/22 02:25:45;;;;;;;5.9;1.7;;;;;;;17.7;66.0166;962.8281;;;;
2020/07/22 02:28:27;;;;;;;4.5;1.6;;;;;;;17.65;66.58203;962.8314;;;;
2020/07/22 02:30:53;;;;;;;4.5;1.6;;;;;;;17.27;67.21484;962.8383;;;;
2020/07/22 02:33:18;;;;;;;3.8;1.8;;;;;;;17.25;68.46191;962.8375;;;;
2020/07/22 02:35:43;;;;;;;3.9;1.8;;;;;;;17.41;67.50488;962.8323;;;;
2020/07/22 02:38:08;;;;;;;4.9;1.6;;;;;;;17.48;67.35156;962.8692;;;;
2020/07/22 02:40:33;;;;;;;6;1.8;;;;;;;17.46;67.43066;962.8783;;;;
2020/07/22 02:43:02;;;;;;;5.2;1.7;;;;;;;17.22;69.40332;962.9133;;;;
2020/07/22 02:45:36;;;;;;;4.7;1.6;;;;;;;17.28;67.56641;962.9239;;;;
2020/07/22 02:48:07;;;;;;;4.6;1.7;;;;;;;17.28;68.53613;962.9708;;;;
2020/07/22 02:50:32;;;;;;;6.1;1.5;;;;;;;17.4;67.46777;962.9097;;;;
2020/07/22 02:52:59;;;;;;;7.3;1.9;;;;;;;17.56;66.36914;962.9216;;;;
2020/07/22 02:55:24;;;;;;;4.2;1.7;;;;;;;17.56;66.65039;962.8869;;;;
2020/07/22 02:57:51;;;;;;;5.3;1.6;;;;;;;17.71;66.35645;962.9442;;;;
2020/07/22 03:00:20;;;;;;;3.9;1.6;;;;;;;17.48;66.73145;962.9565;;;;
2020/07/22 03:02:47;;;;;;;6;2;;;;;;;17.5;66.67676;962.9764;;;;
2020/07/22 03:05:12;;;;;;;3.1;1.6;;;;;;;17.14;66.9502;963.0454;;;;
2020/07/22 03:07:38;;;;;;;3.7;1.5;;;;;;;16.64;69.25293;963.0352;;;;
2020/07/22 03:10:03;;;;;;;3.7;1.6;;;;;;;16.72;69.4873;963.0457;;;;
2020/07/22 03:12:30;;;;;;;5;1.5;;;;;;;16.91;68.38574;963.0742;;;;
2020/07/22 03:14:55;;;;;;;2.9;1.3;;;;;;;16.87;68.76367;963.0328;;;;
2020/07/22 03:17:20;;;;;;;5.3;1.8;;;;;;;16.97;68.94336;963.0223;;;;
2020/07/22 03:19:45;;;;;;;4.7;1.6;;;;;;;17.05;69.12109;963.0833;;;;
2020/07/22 03:22:16;;;;;;;4.7;1.9;;;;;;;16.88;68.70898;963.0594;;;;
2020/07/22 03:24:46;;;;;;;5.3;1.9;;;;;;;16.81;69.25781;963.0361;;;;
2020/07/22 03:27:11;;;;;;;5.2;1.9;;;;;;;16.72;69.93066;963.0588;;;;
2020/07/22 03:29:38;;;;;;;3.9;1.9;;;;;;;16.6;70.30859;963.0736;;;;
2020/07/22 03:32:07;;;;;;;5.2;1.7;;;;;;;16.62;69.48438;963.128;;;;
2020/07/22 03:34:32;;;;;;;5.6;1.7;;;;;;;16.55;69.68359;963.1559;;;;
2020/07/22 03:36:58;;;;;;;6.8;1.7;;;;;;;16.26;70.28906;963.0812;;;;
2020/07/22 03:39:23;;;;;;;5.8;1.9;;;;;;;16.36;69.81641;963.0874;;;;
2020/07/22 03:41:52;;;;;;;4.2;1.6;;;;;;;16.58;68.89453;963.0663;;;;
2020/07/22 03:44:17;;;;;;;4.7;1.6;;;;;;;16.56;69.42773;963.1122;;;;
2020/07/22 03:46:42;;;;;;;6.8;1.6;;;;;;;16.47;68.7373;963.1368;;;;
2020/07/22 03:49:10;;;;;;;5.6;1.7;;;;;;;16.61;68.52637;963.1881;;;;
2020/07/22 03:51:35;;;;;;;5.5;1.7;;;;;;;16.26;69.27539;963.1627;;;;
2020/07/22 03:54:01;;;;;;;4.5;1.7;;;;;;;16.29;70.00391;963.1627;;;;
2020/07/22 03:56:27;;;;;;;3.9;1.7;;;;;;;16.2;70.01172;963.1485;;;;
2020/07/22 03:58:54;;;;;;;5.4;1.8;;;;;;;16.46;69.69141;963.1575;;;;
2020/07/22 04:02:28;;;;;;;5;1.7;;;;;;;16.26;68.87988;963.2391;;;;
2020/07/22 04:04:53;;;;;;;5.7;1.6;;;;;;;16.61;68.65332;963.2787;;;;
2020/07/22 04:07:19;;;;;;;3.9;1.9;;;;;;;16.55;68.67969;963.2877;;;;
2020/07/22 04:09:45;;;;;;;4.7;1.5;;;;;;;16.42;68.78711;963.2477;;;;
2020/07/22 04:12:12;;;;;;;4.2;1.3;;;;;;;16.46;68.50098;963.2767;;;;
2020/07/22 04:14:37;;;;;;;6.3;1.6;;;;;;;16.51;68.03125;963.2523;;;;
2020/07/22 04:17:02;;;;;;;4.4;1.5;;;;;;;16.5;67.58691;963.2817;;;;
2020/07/22 04:19:27;;;;;;;3.7;1.7;;;;;;;16.57;67.81934;963.3181;;;;
2020/07/22 04:21:52;;;;;;;3;1.2;;;;;;;16.79;69.23047;963.2981;;;;
2020/07/22 04:24:18;;;;;;;6.8;1.9;;;;;;;16.7;67.36133;963.3125;;;;
2020/07/22 04:26:44;;;;;;;6.1;1.7;;;;;;;16.71;68.05176;963.3577;;;;
2020/07/22 04:29:10;;;;;;;2.6;1.3;;;;;;;17.01;67.2334;963.3286;;;;
2020/07/22 04:31:35;;;;;;;4.5;1.5;;;;;;;16.94;66.94336;963.3558;;;;
2020/07/22 04:34:04;;;;;;;5.4;1.7;;;;;;;17.12;67.09766;963.3286;;;;
2020/07/22 04:36:29;;;;;;;3.4;1.5;;;;;;;17.23;65.28027;963.308;;;;
2020/07/22 04:38:55;;;;;;;5.6;1.5;;;;;;;16.81;67.23828;963.3105;;;;
2020/07/22 04:41:21;;;;;;;5.6;1.5;;;;;;;16.98;67.90625;963.3047;;;;
2020/07/22 04:43:48;;;;;;;4.5;1.7;;;;;;;16.95;70.09668;963.2635;;;;
2020/07/22 04:46:14;;;;;;;5.4;1.8;;;;;;;17.23;66.89355;963.3295;;;;
2020/07/22 04:48:45;;;;;;;5;1.7;;;;;;;17.09;67.2334;963.3162;;;;
2020/07/22 04:51:13;;;;;;;5.4;1.9;;;;;;;17.21;68.06934;963.3022;;;;
2020/07/22 04:53:38;;;;;;;4.1;1.6;;;;;;;17.34;67.76172;963.3828;;;;
2020/07/22 04:56:03;;;;;;;5.1;2.3;;;;;;;17.3;67.25391;963.3269;;;;
2020/07/22 04:58:28;;;;;;;6.1;2.3;;;;;;;17.37;66.69141;963.3769;;;;
2020/07/22 05:00:54;;;;;;;5.1;2;;;;;;;17.19;67.80957;963.298;;;;
2020/07/22 05:03:19;;;;;;;3.5;1.6;;;;;;;17.23;68.01563;963.3245;;;;
2020/07/22 05:05:46;;;;;;;5.1;1.7;;;;;;;16.99;68.58496;963.3222;;;;
2020/07/22 05:08:11;;;;;;;5.1;1.6;;;;;;;16.74;70.53027;963.3495;;;;
2020/07/22 05:10:38;;;;;;;3.8;1.6;;;;;;;16.79;70.02441;963.4001;;;;
2020/07/22 05:13:04;;;;;;;6.8;1.7;;;;;;;16.9;69.41211;963.3795;;;;
2020/07/22 05:15:30;;;;;;;5.9;1.9;;;;;;;17.08;70.10645;963.3221;;;;
2020/07/22 05:17:57;;;;;;;7.1;2.5;;;;;;;17.16;69.66211;963.2914;;;;
2020/07/22 05:20:25;;;;;;;3.9;2.1;;;;;;;17.28;72.17188;963.2847;;;;
2020/07/22 05:22:50;;;;;;;4.8;2.2;;;;;;;17.22;70.29297;963.2831;;;;
2020/07/22 05:25:16;;;;;;;4.9;2.4;;;;;;;17.31;71.27539;963.2823;;;;
2020/07/22 05:27:42;;;;;;;6.1;2.1;;;;;;;17.22;73.17969;963.2996;;;;
2020/07/22 05:30:07;;;;;;;5.8;1.9;;;;;;;17.16;72.72461;963.3549;;;;
2020/07/22 05:32:34;;;;;;;3.6;1.9;;;;;;;17.21;74.75391;963.378;;;;
2020/07/22 05:34:59;;;;;;;5.8;1.6;;;;;;;17.34;76.82129;963.4083;;;;
2020/07/22 05:37:25;;;;;;;5.1;1.9;;;;;;;17.6;72.24609;963.4434;;;;
2020/07/22 05:39:50;;;;;;;6.9;1.8;;;;;;;17.57;69.98633;963.4334;;;;
2020/07/22 05:42:19;;;;;;;3.9;1.7;;;;;;;17.42;71.07129;963.4429;;;;
2020/07/22 05:44:44;;;;;;;5.8;1.6;;;;;;;17.4;70.11133;963.4519;;;;
2020/07/22 05:47:14;;;;;;;5;1.8;;;;;;;17.35;72.51074;963.448;;;;
2020/07/22 05:49:50;;;;;;;5.3;2;;;;;;;17.44;71.0752;963.5056;;;;
2020/07/22 05:52:15;;;;;;;5;2;;;;;;;17.59;69.94238;963.4872;;;;
2020/07/22 05:54:40;;;;;;;5.7;1.9;;;;;;;17.78;70.49902;963.5231;;;;
2020/07/22 05:57:05;;;;;;;6;1.9;;;;;;;17.9;67.99023;963.5451;;;;
2020/07/22 05:59:32;;;;;;;3.4;1.7;;;;;;;18.04;69.49805;963.5406;;;;
2020/07/22 06:01:57;;;;;;;6.5;1.8;;;;;;;18.08;68.21777;963.6022;;;;
2020/07/22 06:04:22;;;;;;;3.6;1.7;;;;;;;18.03;68.9248;963.5758;;;;
2020/07/22 06:06:47;;;;;;;4.8;1.6;;;;;;;18.06;68.24805;963.5008;;;;
2020/07/22 06:09:13;;;;;;;4.7;1.6;;;;;;;18.07;68.46094;963.4952;;;;
2020/07/22 06:11:39;;;;;;;4.8;1.8;;;;;;;18.17;68.28809;963.5087;;;;
2020/07/22 06:14:04;;;;;;;4.9;1.5;;;;;;;18.01;70.34863;963.509;;;;
2020/07/22 06:16:29;;;;;;;6.6;1.9;;;;;;;18.03;69.61426;963.5289;;;;
2020/07/22 06:18:55;;;;;;;3.8;1.9;;;;;;;18.12;68.59766;963.5516;;;;
2020/07/22 06:21:20;;;;;;;6.9;2.1;;;;;;;18.42;66.24316;963.5684;;;;
2020/07/22 06:23:46;;;;;;;4;1.9;;;;;;;18.06;68.00391;963.6039;;;;
2020/07/22 06:26:11;;;;;;;4.7;1.9;;;;;;;17.77;68.15527;963.5195;;;;
2020/07/22 06:28:36;;;;;;;4.6;1.9;;;;;;;17.77;69.67676;963.5112;;;;
2020/07/22 06:31:04;;;;;;;5.7;2.1;;;;;;;17.79;71.45996;963.5873;;;;
2020/07/22 06:33:29;;;;;;;5.6;2;;;;;;;17.96;70.22266;963.5969;;;;
2020/07/22 06:35:54;;;;;;;9.3;2.1;;;;;;;18.28;69.86426;963.6246;;;;
2020/07/22 06:38:19;;;;;;;4.1;2;;;;;;;18.16;67.66797;963.6663;;;;
2020/07/22 06:40:44;;;;;;;7;2.2;;;;;;;18.16;67.78516;963.6738;;;;
2020/07/22 06:43:09;;;;;;;6.1;1.8;;;;;;;18.36;65.99902;963.7;;;;
2020/07/22 06:45:35;;;;;;;6;2.3;;;;;;;18.44;68.16602;963.7072;;;;
2020/07/22 06:48:01;;;;;;;4;1.9;;;;;;;18.58;69.40723;963.7346;;;;
2020/07/22 06:50:27;;;;;;;4.8;2;;;;;;;18.48;67.9502;963.7307;;;;
2020/07/22 06:52:52;;;;;;;5.6;2.4;;;;;;;18.31;69.43555;963.7145;;;;
2020/07/22 06:55:17;;;;;;;4.3;2;;;;;;;18.45;68.40332;963.7076;;;;
2020/07/22 06:57:45;;;;;;;6.5;2.1;;;;;;;18.4;66.71973;963.7644;;;;
2020/07/22 07:00:10;;;;;;;5.4;1.9;;;;;;;18.51;68.62305;963.7883;;;;
2020/07/22 07:02:35;;;;;;;5.1;2;;;;;;;18.69;69.22656;963.7824;;;;
2020/07/22 07:05:01;;;;;;;5;1.9;;;;;;;18.69;71.8877;963.7989;;;;
2020/07/22 07:07:27;;;;;;;3;2.1;;;;;;;18.86;69.51074;963.7626;;;;
2020/07/22 07:09:52;;;;;;;5.8;2.2;;;;;;;18.6;67.92285;963.6755;;;;
2020/07/22 07:12:19;;;;;;;7;2.1;;;;;;;18.63;69.83789;963.7026;;;;
2020/07/22 07:14:44;;;;;;;6.3;2.2;;;;;;;18.85;68.59375;963.7101;;;;
2020/07/22 07:17:09;;;;;;;6;2;;;;;;;18.98;67.91016;963.71;;;;
2020/07/22 07:19:36;;;;;;;5.8;2.2;;;;;;;19.21;67.80371;963.7083;;;;
2020/07/22 07:22:01;;;;;;;7.7;2.2;;;;;;;19.09;67.61035;963.6811;;;;
2020/07/22 07:24:26;;;;;;;10.1;2.4;;;;;;;19.11;68.76465;963.6757;;;;
2020/07/22 07:26:51;;;;;;;8.6;2.3;;;;;;;19.24;69.40625;963.6799;;;;
2020/07/22 07:29:16;;;;;;;7.7;2.3;;;;;;;19.22;68.69727;963.6609;;;;
2020/07/22 07:31:43;;;;;;;5.2;2.3;;;;;;;19.35;71.63086;963.6515;;;;
2020/07/22 07:34:08;;;;;;;4.4;2.2;;;;;;;19.44;71.29297;963.6599;;;;
2020/07/22 07:36:34;;;;;;;4;2.2;;;;;;;19.49;70.49219;963.6519;;;;
2020/07/22 07:38:59;;;;;;;4.6;2.4;;;;;;;19.62;70.71191;963.6953;;;;
2020/07/22 07:41:24;;;;;;;4.9;2.2;;;;;;;19.32;69.12402;963.6691;;;;
2020/07/22 07:43:54;;;;;;;7.1;2.2;;;;;;;19.41;70.37207;963.7336;;;;
2020/07/22 07:46:19;;;;;;;8;2.7;;;;;;;19.58;69.78906;963.7478;;;;
2020/07/22 07:48:44;;;;;;;7.4;2.6;;;;;;;19.7;71.91211;963.7329;;;;
2020/07/22 07:51:30;;;;;;;4.7;2.4;;;;;;;19.76;71.14551;963.7208;;;;
2020/07/22 07:53:54;;;;;;;5.5;2.6;;;;;;;19.92;72.96973;963.6983;;;;
2020/07/22 07:56:01;;;;;;;3.3;2.2;;;;;;;19.93;73.06738;963.6727;;;;
2020/07/22 07:58:26;;;;;;;7.1;2.6;;;;;;;19.93;75.06445;963.686;;;;
2020/07/22 08:00:56;;;;;;;8.1;2.6;;;;;;;20;72.77051;963.6462;;;;
2020/07/22 08:03:22;;;;;;;5.6;2.6;;;;;;;20.06;70.41797;963.6894;;;;
2020/07/22 08:05:50;;;;;;;4.7;2.3;;;;;;;20.17;72.2002;963.7079;;;;
2020/07/22 08:08:15;;;;;;;5.8;2.4;;;;;;;19.97;66.82715;963.7491;;;;
2020/07/22 08:10:42;;;;;;;5.5;2.6;;;;;;;19.94;66.04785;963.6998;;;;
2020/07/22 08:13:10;;;;;;;3.7;2.3;;;;;;;19.9;66.50098;963.7028;;;;
2020/07/22 08:15:47;;;;;;;3.8;2.4;;;;;;;20.08;67.7373;963.8028;;;;
2020/07/22 08:18:12;;;;;;;6.3;2.4;;;;;;;20.15;67.58398;963.7472;;;;
2020/07/22 08:20:37;;;;;;;5.8;2.3;;;;;;;20.34;66.60156;963.7681;;;;
2020/07/22 08:23:05;;;;;;;3.7;2.1;;;;;;;20.54;61.81543;963.7451;;;;
2020/07/22 08:25:30;;;;;;;5.2;1.9;;;;;;;20.62;62.92188;963.7433;;;;
2020/07/22 08:27:55;;;;;;;5.1;2;;;;;;;20.56;62.92676;963.7175;;;;
2020/07/22 08:30:20;;;;;;;7.6;2.2;;;;;;;20.46;58.71973;963.7458;;;;
2020/07/22 08:32:45;;;;;;;3.7;1.9;;;;;;;20.61;63.10938;963.7037;;;;
2020/07/22 08:35:11;;;;;;;3.4;1.7;;;;;;;20.69;59.96387;963.6891;;;;
2020/07/22 08:37:38;;;;;;;3.4;1.6;;;;;;;20.7;59.49316;963.7155;;;;
2020/07/22 08:40:03;;;;;;;2.9;1.4;;;;;;;20.76;58.71387;963.7;;;;
2020/07/22 08:42:29;;;;;;;3.5;1.4;;;;;;;20.7;50.38965;963.6718;;;;
2020/07/22 08:44:54;;;;;;;4;1.6;;;;;;;20.85;54.88379;963.668;;;;
2020/07/22 08:47:21;;;;;;;5.6;1.7;;;;;;;21;53.93555;963.7086;;;;
2020/07/22 08:49:46;;;;;;;2.5;1.4;;;;;;;21;54.25488;963.7353;;;;
2020/07/22 08:52:12;;;;;;;3.2;1.6;;;;;;;21.07;52.8252;963.7275;;;;
2020/07/22 08:54:38;;;;;;;5.7;1.8;;;;;;;21.26;50.62988;963.7006;;;;
2020/07/22 08:57:03;;;;;;;3.1;1.5;;;;;;;21.38;48.80371;963.6531;;;;
2020/07/22 08:59:28;;;;;;;3.3;1.5;;;;;;;21.46;49.54297;963.6894;;;;
2020/07/22 09:01:54;;;;;;;3.7;1.4;;;;;;;21.62;49.30273;963.6258;;;;
2020/07/22 09:04:20;;;;;;;2.9;1.5;;;;;;;21.75;48.18262;963.6652;;;;
2020/07/22 09:06:45;;;;;;;2.8;1.3;;;;;;;21.84;48.25195;963.7015;;;;
2020/07/22 09:09:10;;;;;;;3.6;1.5;;;;;;;21.88;49.85059;963.6974;;;;
2020/07/22 09:11:35;;;;;;;4.6;1.2;;;;;;;21.9;47.4668;963.6749;;;;
2020/07/22 09:14:03;;;;;;;2.9;1.2;;;;;;;21.96;48.18262;963.5997;;;;
2020/07/22 09:16:28;;;;;;;2.5;1.2;;;;;;;22;47.26465;963.6414;;;;
2020/07/22 09:18:53;;;;;;;4.1;1.4;;;;;;;21.94;48.42871;963.595;;;;
2020/07/22 09:21:19;;;;;;;3.7;1.1;;;;;;;22;46.02441;963.598;;;;
2020/07/22 09:23:44;;;;;;;2.3;1.3;;;;;;;22.07;47.94531;963.5461;;;;
2020/07/22 09:26:09;;;;;;;3.5;1.2;;;;;;;22.15;46.5957;963.5022;;;;
2020/07/22 09:28:34;;;;;;;3;1.1;;;;;;;22.3;46.39844;963.4911;;;;
2020/07/22 09:30:59;;;;;;;2.9;1.3;;;;;;;22.32;43.31445;963.4991;;;;
2020/07/22 09:33:25;;;;;;;3.7;1.4;;;;;;;22.21;42.61816;963.4662;;;;
2020/07/22 09:35:50;;;;;;;4;1.3;;;;;;;22.14;42.9541;963.4575;;;;
2020/07/22 09:38:17;;;;;;;3.2;1;;;;;;;22.2;41.99219;963.45;;;;
2020/07/22 09:40:42;;;;;;;3.1;1;;;;;;;22.41;39.39844;963.4066;;;;
2020/07/22 09:43:09;;;;;;;2.2;0.9;;;;;;;22.5;39.74902;963.437;;;;
2020/07/22 09:45:39;;;;;;;2.9;1;;;;;;;22.64;41.01563;963.3733;;;;
2020/07/22 09:48:06;;;;;;;3;1.2;;;;;;;22.56;41.29297;963.3718;;;;
2020/07/22 09:50:31;;;;;;;2.5;1;;;;;;;22.72;38.56152;963.3558;;;;
2020/07/22 09:52:56;;;;;;;2.5;0.8;;;;;;;22.84;37.95703;963.3105;;;;
2020/07/22 09:55:21;;;;;;;4;1.1;;;;;;;22.96;38.59473;963.2773;;;;
2020/07/22 09:57:49;;;;;;;1.3;1.1;;;;;;;22.93;37.78711;963.2146;;;;
2020/07/22 10:00:25;;;;;;;3.7;1.3;;;;;;;22.78;40.29492;963.2312;;;;
2020/07/22 10:02:53;;;;;;;1.9;1;;;;;;;22.92;40.69727;963.1651;;;;
2020/07/22 10:05:18;;;;;;;5.6;1.6;;;;;;;22.98;43.8418;963.1837;;;;
2020/07/22 10:07:48;;;;;;;3;1.3;;;;;;;23.05;45.7666;963.1355;;;;
2020/07/22 10:10:19;;;;;;;3.3;1.4;;;;;;;22.97;48.87109;963.1223;;;;
2020/07/22 10:12:46;;;;;;;4.3;1.3;;;;;;;22.96;46.13672;963.1135;;;;
2020/07/22 10:15:12;;;;;;;3.6;1.5;;;;;;;23.17;46.76074;963.0986;;;;
2020/07/22 10:17:37;;;;;;;2.9;1.3;;;;;;;23.03;46.08398;963.0717;;;;
2020/07/22 10:20:03;;;;;;;5.3;2.2;;;;;;;23.21;46.57617;962.9359;;;;
2020/07/22 10:22:28;;;;;;;4.9;1.8;;;;;;;23.39;46.51172;963.0139;;;;
2020/07/22 10:24:54;;;;;;;3;1.2;;;;;;;23.44;45.28418;963.0201;;;;
2020/07/22 10:27:19;;;;;;;2.5;1.2;;;;;;;23.4;42.875;963.027;;;;
2020/07/22 10:29:44;;;;;;;2.4;1.1;;;;;;;23.34;39.20801;962.937;;;;
2020/07/22 10:32:11;;;;;;;2.5;1.4;;;;;;;23.33;43.34277;962.8948;;;;
2020/07/22 10:34:36;;;;;;;2.3;1.2;;;;;;;23.31;45.4834;962.9014;;;;
2020/07/22 10:37:02;;;;;;;3.4;1.5;;;;;;;23.39;44.50977;962.8791;;;;
2020/07/22 10:39:27;;;;;;;4.2;1.3;;;;;;;23.75;42.36328;962.8589;;;;
2020/07/22 10:41:54;;;;;;;4;1.4;;;;;;;23.89;44.70313;962.824;;;;
2020/07/22 10:44:19;;;;;;;4;1.5;;;;;;;23.91;44.38379;962.7628;;;;
2020/07/22 10:46:45;;;;;;;3.3;1.3;;;;;;;23.86;46.57324;962.7;;;;
2020/07/22 10:49:10;;;;;;;2.6;1.3;;;;;;;23.95;45.50293;962.7416;;;;
2020/07/22 10:51:39;;;;;;;3.4;1.1;;;;;;;23.98;44.23633;962.759;;;;
2020/07/22 10:54:04;;;;;;;3.3;1.1;;;;;;;23.96;44.78027;962.7225;;;;
2020/07/22 10:56:29;;;;;;;3.4;1.3;;;;;;;23.93;44.74121;962.7224;;;;
2020/07/22 10:58:54;;;;;;;3.9;1.4;;;;;;;23.82;45.66699;962.704;;;;
2020/07/22 11:01:19;;;;;;;3.8;1.3;;;;;;;23.91;45.81934;962.6397;;;;
2020/07/22 11:03:45;;;;;;;2.4;1.3;;;;;;;24.1;45.36328;962.6592;;;;
2020/07/22 11:06:10;;;;;;;3.2;1.4;;;;;;;23.94;46.35645;962.6337;;;;
2020/07/22 11:08:35;;;;;;;4;1.4;;;;;;;24;43.15918;962.6245;;;;
2020/07/22 11:11:00;;;;;;;5.3;1.4;;;;;;;24.13;43.99023;962.6106;;;;
2020/07/22 11:13:26;;;;;;;3.1;1.3;;;;;;;24.09;44.02148;962.5947;;;;
2020/07/22 11:15:51;;;;;;;3;1.3;;;;;;;24.13;44.99902;962.5891;;;;
2020/07/22 11:18:17;;;;;;;3.2;1.3;;;;;;;24.04;45.29883;962.5308;;;;
2020/07/22 11:20:42;;;;;;;3.4;1.3;;;;;;;24.15;44.0752;962.4713;;;;
2020/07/22 11:23:07;;;;;;;2.8;1.4;;;;;;;24.12;44.22559;962.4255;;;;
2020/07/22 11:25:34;;;;;;;3.3;1.3;;;;;;;24.29;43.16309;962.427;;;;
2020/07/22 11:27:58;;;;;;;4.2;1.4;;;;;;;24.35;43.07324;962.3825;;;;
2020/07/22 11:30:24;;;;;;;4.7;1.5;;;;;;;24.02;45.8418;962.3649;;;;
2020/07/22 11:32:49;;;;;;;3.6;1.3;;;;;;;24.14;44.50195;962.3356;;;;
2020/07/22 11:35:14;;;;;;;2.4;1.3;;;;;;;24.29;44.29004;962.3186;;;;
2020/07/22 11:37:39;;;;;;;2.2;1.3;;;;;;;24.45;43.55762;962.28;;;;
2020/07/22 11:40:04;;;;;;;3.5;1.5;;;;;;;24.54;43.22168;962.2621;;;;
2020/07/22 11:42:32;;;;;;;4.7;1.4;;;;;;;24.61;45.11816;962.187;;;;
2020/07/22 11:44:57;;;;;;;3.2;1.3;;;;;;;24.48;43.64355;962.149;;;;
2020/07/22 11:47:23;;;;;;;2.8;1.3;;;;;;;24.67;42.43945;962.0433;;;;
2020/07/22 11:49:48;;;;;;;1.9;1.1;;;;;;;24.62;42.94531;961.9928;;;;
2020/07/22 11:52:13;;;;;;;3.4;1.2;;;;;;;24.73;43.5498;962.0289;;;;
2020/07/22 11:54:39;;;;;;;3.4;1.3;;;;;;;24.9;42.97168;962.012;;;;
2020/07/22 11:57:04;;;;;;;3.1;1.2;;;;;;;25.08;41.33594;962.0064;;;;
2020/07/22 11:59:30;;;;;;;5;1.3;;;;;;;24.93;42.92773;962.01;;;;
2020/07/22 12:01:59;;;;;;;4.1;1.4;;;;;;;24.81;42.96387;961.993;;;;
2020/07/22 12:04:24;;;;;;;2.5;1.1;;;;;;;25.06;41.61914;962.0306;;;;
2020/07/22 12:06:49;;;;;;;4.6;1.5;;;;;;;24.76;42.10254;961.9228;;;;
2020/07/22 12:09:24;;;;;;;2.2;1.1;;;;;;;24.88;43.41016;961.8947;;;;
2020/07/22 12:11:41;;;;;;;3.1;1.3;;;;;;;25.14;42.4834;961.8923;;;;
2020/07/22 12:14:06;;;;;;;3.8;1.2;;;;;;;25;42.1377;961.8139;;;;
2020/07/22 12:16:31;;;;;;;3.2;1.4;;;;;;;24.99;41.96973;961.7767;;;;
2020/07/22 12:19:00;;;;;;;3.8;1.6;;;;;;;25.11;41.38672;961.7634;;;;
2020/07/22 12:21:25;;;;;;;3.4;1.6;;;;;;;25.24;41.25586;961.6781;;;;
2020/07/22 12:23:50;;;;;;;4.1;1.3;;;;;;;25.31;41.89258;961.6359;;;;
2020/07/22 12:26:16;;;;;;;4.5;1.5;;;;;;;25.39;41.50781;961.6252;;;;
2020/07/22 12:28:41;;;;;;;4.1;1.3;;;;;;;25.55;40.48633;961.5497;;;;
2020/07/22 12:31:06;;;;;;;5.8;1.3;;;;;;;25.55;42.48535;961.5353;;;;
2020/07/22 12:33:34;;;;;;;3.2;1.2;;;;;;;25.66;41.38965;961.5637;;;;
2020/07/22 12:35:59;;;;;;;2.6;1.2;;;;;;;25.88;41.2666;961.5496;;;;
2020/07/22 12:38:24;;;;;;;2.5;1.5;;;;;;;26.04;40.70996;961.4342;;;;
2020/07/22 12:40:49;;;;;;;3.1;1.4;;;;;;;26.1;41.58594;961.3953;;;;
2020/07/22 12:43:14;;;;;;;2.8;1.6;;;;;;;26.01;40.88574;961.3736;;;;
2020/07/22 12:45:47;;;;;;;3.5;1.5;;;;;;;26;39.99023;961.3552;;;;
2020/07/22 12:48:12;;;;;;;2.8;1.5;;;;;;;25.86;41.00195;961.4139;;;;
2020/07/22 12:50:38;;;;;;;3.4;1.4;;;;;;;26.11;40.84668;961.3864;;;;
2020/07/22 12:53:04;;;;;;;2.6;1.2;;;;;;;26.4;39.6084;961.4233;;;;
2020/07/22 12:55:29;;;;;;;2.5;1.3;;;;;;;26.24;42.69629;961.3605;;;;
2020/07/22 12:57:54;;;;;;;2.5;1.1;;;;;;;26.05;40.49609;961.3145;;;;
2020/07/22 13:00:26;;;;;;;3.6;1.5;;;;;;;26.22;39.64063;961.3145;;;;
2020/07/22 13:02:53;;;;;;;3.6;1.4;;;;;;;26.44;40.59082;961.3254;;;;
2020/07/22 13:05:19;;;;;;;2.5;1.3;;;;;;;26.69;40.80371;961.3502;;;;
2020/07/22 13:07:44;;;;;;;3.2;1.4;;;;;;;26.82;39.51465;961.3484;;;;
2020/07/22 13:10:09;;;;;;;2.4;1.2;;;;;;;26.69;38.96582;961.3752;;;;
2020/07/22 13:12:35;;;;;;;3.3;1.4;;;;;;;26.92;39.82227;961.3703;;;;
2020/07/22 13:15:00;;;;;;;3.8;1.5;;;;;;;27.07;41.62695;961.3237;;;;
2020/07/22 13:17:28;;;;;;;2.3;1.5;;;;;;;27.09;39.39453;961.3069;;;;
2020/07/22 13:19:53;;;;;;;2.9;1.6;;;;;;;27.13;38.77734;961.2692;;;;
2020/07/22 13:22:20;;;;;;;2.1;1.2;;;;;;;27.23;37.88965;961.2863;;;;
2020/07/22 13:24:45;;;;;;;2.8;1.4;;;;;;;26.9;41.05078;961.2526;;;;
2020/07/22 13:27:10;;;;;;;3.5;1.4;;;;;;;27.07;38.42578;961.2156;;;;
2020/07/22 13:29:35;;;;;;;5.1;1.3;;;;;;;26.85;40.05469;961.2317;;;;
2020/07/22 13:32:00;;;;;;;2.1;1.2;;;;;;;26.88;42.17188;961.2273;;;;
2020/07/22 13:34:29;;;;;;;3.4;1.6;;;;;;;26.96;40.4707;961.1944;;;;
2020/07/22 13:36:54;;;;;;;3.7;1.6;;;;;;;27;41.69238;961.1978;;;;
2020/07/22 13:39:21;;;;;;;4.2;1.4;;;;;;;26.74;41.50098;961.1236;;;;
2020/07/22 13:41:46;;;;;;;3.2;1.4;;;;;;;26.79;39.17773;961.166;;;;
2020/07/22 13:44:13;;;;;;;6;1.5;;;;;;;26.37;40.88281;961.0717;;;;
2020/07/22 13:46:39;;;;;;;6.4;1.7;;;;;;;26.4;41.30273;961.0762;;;;
2020/07/22 13:49:04;;;;;;;4.1;1.4;;;;;;;26.31;40.19727;961.0669;;;;
2020/07/22 13:51:29;;;;;;;5.5;1.7;;;;;;;26.1;41.56055;961.0413;;;;
2020/07/22 13:53:54;;;;;;;3.4;1.3;;;;;;;26.2;41.30859;961.1169;;;;
2020/07/22 13:56:20;;;;;;;4.6;1.6;;;;;;;25.7;44.63281;961.0453;;;;
2020/07/22 13:58:46;;;;;;;5.1;1.5;;;;;;;25.91;45.42969;960.9573;;;;
2020/07/22 14:01:11;;;;;;;3.1;1.5;;;;;;;26.03;42.47266;960.9236;;;;
2020/07/22 14:03:37;;;;;;;4.7;1.7;;;;;;;26.14;42.88867;960.8787;;;;
2020/07/22 14:06:03;;;;;;;5.1;2;;;;;;;26.04;42.75977;960.846;;;;
2020/07/22 14:08:28;;;;;;;3;1.6;;;;;;;25.9;43.31934;960.8182;;;;
2020/07/22 14:13:20;;;;;;;4.4;1.6;;;;;;;25.66;44.28418;960.7855;;;;
2020/07/22 14:15:48;;;;;;;6.3;1.6;;;;;;;25.45;45.27539;960.8192;;;;
2020/07/22 14:18:14;;;;;;;4.1;1.6;;;;;;;25.58;44.22754;960.8189;;;;
2020/07/22 14:20:39;;;;;;;5.9;1.8;;;;;;;25.52;42.37695;960.7645;;;;
2020/07/22 14:23:05;;;;;;;3.5;1.7;;;;;;;25.92;44.21387;960.6831;;;;